createdAt,value
2017-02-03T00:00:02.346Z,21.85
2017-02-03T00:00:22.080Z,21.85
2017-02-03T00:00:41.156Z,21.86
2017-02-03T00:01:00.874Z,21.94
2017-02-03T00:01:20.553Z,22
2017-02-03T00:01:40.285Z,21.95
2017-02-03T00:02:00.004Z,22.08
2017-02-03T00:02:19.726Z,22.05
2017-02-03T00:02:39.428Z,22.04
2017-02-03T00:02:59.130Z,22.05
2017-02-03T00:03:18.864Z,22.05
2017-02-03T00:03:38.585Z,22.02
2017-02-03T00:03:58.291Z,22.15
2017-02-03T00:04:18.009Z,22.16
2017-02-03T00:04:37.722Z,22.07
2017-02-03T00:04:57.429Z,22.12
2017-02-03T00:05:16.560Z,22.08
2017-02-03T00:05:36.314Z,22.04
2017-02-03T00:05:56.049Z,22.02
2017-02-03T00:06:15.755Z,22.04
2017-02-03T00:06:35.490Z,22.12
2017-02-03T00:06:55.204Z,22.04
2017-02-03T00:07:14.908Z,22.02
2017-02-03T00:07:34.650Z,22.08
2017-02-03T00:07:54.418Z,22.08
2017-02-03T00:08:14.155Z,22.04
2017-02-03T00:08:33.278Z,22.02
2017-02-03T00:08:52.405Z,21.98
2017-02-03T00:09:12.133Z,21.97
2017-02-03T00:09:31.885Z,21.91
2017-02-03T00:09:51.632Z,21.92
2017-02-03T00:10:11.349Z,21.94
2017-02-03T00:10:31.092Z,21.89
2017-02-03T00:10:50.894Z,21.86
2017-02-03T00:11:10.616Z,21.91
2017-02-03T00:11:30.339Z,21.85
2017-02-03T00:11:50.064Z,21.89
2017-02-03T00:12:09.773Z,21.86
2017-02-03T00:12:29.520Z,21.85
2017-02-03T00:12:49.218Z,21.75
2017-02-03T00:13:08.938Z,21.75
2017-02-03T00:13:28.648Z,21.78
2017-02-03T00:13:48.436Z,21.84
2017-02-03T00:14:08.150Z,21.79
2017-02-03T00:14:27.261Z,21.82
2017-02-03T00:14:46.397Z,21.79
2017-02-03T00:15:04.887Z,21.76
2017-02-03T00:15:24.608Z,21.76
2017-02-03T00:15:44.341Z,21.81
2017-02-03T00:16:04.050Z,21.75
2017-02-03T00:16:23.195Z,21.67
2017-02-03T00:16:42.980Z,21.66
2017-02-03T00:17:02.685Z,21.72
2017-02-03T00:17:22.405Z,21.75
2017-02-03T00:17:42.124Z,21.64
2017-02-03T00:18:01.256Z,21.6
2017-02-03T00:18:20.978Z,21.64
2017-02-03T00:18:40.095Z,21.59
2017-02-03T00:18:59.821Z,21.53
2017-02-03T00:19:19.560Z,21.57
2017-02-03T00:19:38.684Z,21.59
2017-02-03T00:19:58.397Z,21.6
2017-02-03T00:20:18.151Z,21.56
2017-02-03T00:20:37.888Z,21.6
2017-02-03T00:20:57.611Z,21.6
2017-02-03T00:21:17.347Z,21.56
2017-02-03T00:21:37.071Z,21.61
2017-02-03T00:21:56.795Z,21.53
2017-02-03T00:22:16.530Z,21.56
2017-02-03T00:22:36.229Z,21.57
2017-02-03T00:22:55.307Z,21.56
2017-02-03T00:23:15.046Z,21.54
2017-02-03T00:23:34.755Z,21.59
2017-02-03T00:23:54.476Z,21.59
2017-02-03T00:24:14.231Z,21.61
2017-02-03T00:24:33.966Z,21.66
2017-02-03T00:24:53.654Z,21.61
2017-02-03T00:25:13.381Z,21.61
2017-02-03T00:25:33.095Z,21.69
2017-02-03T00:25:52.203Z,21.69
2017-02-03T00:26:11.352Z,21.6
2017-02-03T00:26:31.106Z,21.64
2017-02-03T00:26:49.628Z,21.66
2017-02-03T00:27:09.334Z,21.7
2017-02-03T00:27:29.046Z,21.67
2017-02-03T00:27:48.804Z,21.67
2017-02-03T00:28:07.953Z,21.69
2017-02-03T00:28:27.677Z,21.69
2017-02-03T00:28:46.786Z,21.67
2017-02-03T00:29:06.492Z,21.75
2017-02-03T00:29:25.603Z,21.72
2017-02-03T00:29:45.345Z,21.72
2017-02-03T00:30:05.039Z,21.76
2017-02-03T00:30:24.751Z,21.74
2017-02-03T00:30:43.835Z,21.76
2017-02-03T00:31:03.537Z,21.79
2017-02-03T00:31:23.243Z,21.74
2017-02-03T00:31:42.964Z,21.78
2017-02-03T00:32:02.661Z,21.72
2017-02-03T00:32:22.402Z,21.72
2017-02-03T00:32:42.150Z,21.82
2017-02-03T00:33:01.835Z,21.76
2017-02-03T00:33:21.513Z,21.79
2017-02-03T00:33:41.217Z,21.74
2017-02-03T00:34:00.934Z,21.84
2017-02-03T00:34:20.630Z,21.78
2017-02-03T00:34:40.363Z,21.81
2017-02-03T00:35:00.095Z,21.84
2017-02-03T00:35:19.253Z,21.78
2017-02-03T00:35:38.974Z,21.76
2017-02-03T00:35:58.668Z,21.75
2017-02-03T00:36:17.788Z,21.72
2017-02-03T00:36:37.456Z,21.84
2017-02-03T00:36:57.150Z,21.76
2017-02-03T00:37:16.904Z,21.72
2017-02-03T00:37:36.646Z,21.78
2017-02-03T00:37:56.373Z,21.78
2017-02-03T00:38:16.119Z,21.76
2017-02-03T00:38:35.869Z,21.74
2017-02-03T00:38:55.625Z,21.78
2017-02-03T00:39:15.335Z,21.79
2017-02-03T00:39:35.064Z,21.78
2017-02-03T00:39:54.801Z,21.81
2017-02-03T00:40:14.529Z,21.81
2017-02-03T00:40:33.656Z,21.79
2017-02-03T00:40:53.366Z,21.79
2017-02-03T00:41:13.117Z,21.84
2017-02-03T00:41:32.825Z,21.78
2017-02-03T00:41:52.544Z,21.85
2017-02-03T00:42:12.258Z,21.94
2017-02-03T00:42:31.982Z,21.98
2017-02-03T00:42:51.720Z,21.86
2017-02-03T00:43:10.800Z,21.92
2017-02-03T00:43:30.555Z,21.94
2017-02-03T00:43:50.259Z,21.97
2017-02-03T00:44:09.978Z,22
2017-02-03T00:44:29.670Z,21.98
2017-02-03T00:44:49.357Z,22.05
2017-02-03T00:45:09.294Z,22.04
2017-02-03T00:45:28.985Z,22.02
2017-02-03T00:45:48.684Z,22.05
2017-02-03T00:46:08.384Z,22.05
2017-02-03T00:46:27.490Z,22.13
2017-02-03T00:46:47.269Z,22.2
2017-02-03T00:47:07.064Z,22.07
2017-02-03T00:47:26.205Z,22.02
2017-02-03T00:47:45.956Z,22.16
2017-02-03T00:48:05.701Z,22.12
2017-02-03T00:48:24.218Z,22.2
2017-02-03T00:48:43.910Z,22.17
2017-02-03T00:49:03.645Z,22.16
2017-02-03T00:49:22.789Z,22.22
2017-02-03T00:49:42.526Z,22.17
2017-02-03T00:50:02.263Z,22.23
2017-02-03T00:50:21.972Z,22.2
2017-02-03T00:50:41.108Z,22.28
2017-02-03T00:51:00.815Z,22.31
2017-02-03T00:51:20.523Z,22.26
2017-02-03T00:51:39.627Z,22.28
2017-02-03T00:51:59.343Z,22.23
2017-02-03T00:52:19.176Z,22.32
2017-02-03T00:52:38.880Z,22.28
2017-02-03T00:52:58.599Z,22.26
2017-02-03T00:53:18.357Z,22.3
2017-02-03T00:53:38.055Z,22.28
2017-02-03T00:53:57.785Z,22.24
2017-02-03T00:54:17.481Z,22.22
2017-02-03T00:54:37.195Z,22.23
2017-02-03T00:54:56.931Z,22.22
2017-02-03T00:55:16.081Z,22.17
2017-02-03T00:55:35.181Z,22.19
2017-02-03T00:55:54.927Z,22.19
2017-02-03T00:56:14.667Z,22.23
2017-02-03T00:56:34.396Z,22.32
2017-02-03T00:56:54.213Z,22.3
2017-02-03T00:57:13.960Z,22.23
2017-02-03T00:57:33.704Z,22.35
2017-02-03T00:57:53.502Z,22.26
2017-02-03T00:58:12.647Z,22.3
2017-02-03T00:58:32.361Z,22.22
2017-02-03T00:58:52.080Z,22.35
2017-02-03T00:59:11.807Z,22.32
2017-02-03T00:59:31.506Z,22.34
2017-02-03T00:59:51.203Z,22.34
2017-02-03T01:00:11.012Z,22.38
2017-02-03T01:00:30.728Z,22.37
2017-02-03T01:00:50.436Z,22.26
2017-02-03T01:01:10.133Z,22.34
2017-02-03T01:01:29.250Z,22.34
2017-02-03T01:01:48.991Z,22.28
2017-02-03T01:02:08.138Z,22.38
2017-02-03T01:02:27.262Z,22.28
2017-02-03T01:02:46.364Z,22.22
2017-02-03T01:03:05.754Z,22.2
2017-02-03T01:03:25.436Z,22.22
2017-02-03T01:03:45.132Z,22.28
2017-02-03T01:04:04.866Z,22.23
2017-02-03T01:04:24.579Z,22.3
2017-02-03T01:04:43.719Z,22.2
2017-02-03T01:05:03.447Z,22.28
2017-02-03T01:05:23.152Z,22.35
2017-02-03T01:05:42.902Z,22.32
2017-02-03T01:06:02.037Z,22.24
2017-02-03T01:06:21.198Z,22.31
2017-02-03T01:06:40.959Z,22.32
2017-02-03T01:07:00.034Z,22.35
2017-02-03T01:07:19.803Z,22.39
2017-02-03T01:07:39.500Z,22.35
2017-02-03T01:07:59.231Z,22.41
2017-02-03T01:08:18.937Z,22.38
2017-02-03T01:08:38.645Z,22.49
2017-02-03T01:08:58.363Z,22.5
2017-02-03T01:09:18.093Z,22.41
2017-02-03T01:09:37.191Z,22.46
2017-02-03T01:09:56.928Z,22.46
2017-02-03T01:10:16.063Z,22.42
2017-02-03T01:10:35.824Z,22.34
2017-02-03T01:10:55.516Z,22.37
2017-02-03T01:11:15.220Z,22.34
2017-02-03T01:11:34.941Z,22.42
2017-02-03T01:11:54.742Z,22.31
2017-02-03T01:12:14.464Z,22.41
2017-02-03T01:12:34.174Z,22.32
2017-02-03T01:12:53.914Z,22.41
2017-02-03T01:13:13.653Z,22.44
2017-02-03T01:13:33.361Z,22.47
2017-02-03T01:13:53.126Z,22.46
2017-02-03T01:14:12.261Z,22.49
2017-02-03T01:14:32.026Z,22.42
2017-02-03T01:14:51.745Z,22.46
2017-02-03T01:15:10.892Z,22.49
2017-02-03T01:15:30.576Z,22.41
2017-02-03T01:15:50.287Z,22.52
2017-02-03T01:16:09.405Z,22.38
2017-02-03T01:16:28.509Z,22.39
2017-02-03T01:16:48.268Z,22.34
2017-02-03T01:17:07.987Z,22.34
2017-02-03T01:17:27.726Z,22.31
2017-02-03T01:17:47.463Z,22.32
2017-02-03T01:18:07.169Z,22.37
2017-02-03T01:18:26.862Z,22.37
2017-02-03T01:18:46.588Z,22.37
2017-02-03T01:19:06.311Z,22.37
2017-02-03T01:19:26.052Z,22.34
2017-02-03T01:19:45.747Z,22.26
2017-02-03T01:20:05.460Z,22.34
2017-02-03T01:20:25.244Z,22.3
2017-02-03T01:20:44.968Z,22.28
2017-02-03T01:21:04.674Z,22.2
2017-02-03T01:21:24.381Z,22.19
2017-02-03T01:21:44.051Z,22.22
2017-02-03T01:22:03.802Z,22.28
2017-02-03T01:22:22.916Z,22.23
2017-02-03T01:22:42.638Z,22.24
2017-02-03T01:23:02.392Z,22.15
2017-02-03T01:23:22.144Z,22.28
2017-02-03T01:23:41.877Z,22.26
2017-02-03T01:24:01.613Z,22.22
2017-02-03T01:24:21.331Z,22.16
2017-02-03T01:24:40.536Z,22.19
2017-02-03T01:25:00.288Z,22.16
2017-02-03T01:25:19.411Z,22.13
2017-02-03T01:25:38.550Z,22.1
2017-02-03T01:25:57.684Z,22.02
2017-02-03T01:26:17.434Z,22.05
2017-02-03T01:26:37.135Z,22.04
2017-02-03T01:26:56.857Z,22.05
2017-02-03T01:27:16.568Z,22.05
2017-02-03T01:27:35.701Z,22.02
2017-02-03T01:27:55.391Z,22
2017-02-03T01:28:15.091Z,21.91
2017-02-03T01:28:34.801Z,21.95
2017-02-03T01:28:54.508Z,21.91
2017-02-03T01:29:14.262Z,21.82
2017-02-03T01:29:34.005Z,21.95
2017-02-03T01:29:53.720Z,21.85
2017-02-03T01:30:13.450Z,21.86
2017-02-03T01:30:32.588Z,21.78
2017-02-03T01:30:52.306Z,21.78
2017-02-03T01:31:12.081Z,21.85
2017-02-03T01:31:31.734Z,21.86
2017-02-03T01:31:51.437Z,21.78
2017-02-03T01:32:11.186Z,21.85
2017-02-03T01:32:30.892Z,21.79
2017-02-03T01:32:50.588Z,21.85
2017-02-03T01:33:10.305Z,21.85
2017-02-03T01:33:30.043Z,21.82
2017-02-03T01:33:49.765Z,21.78
2017-02-03T01:34:09.419Z,21.81
2017-02-03T01:34:28.548Z,21.81
2017-02-03T01:34:47.697Z,21.85
2017-02-03T01:35:07.441Z,21.81
2017-02-03T01:35:27.151Z,21.79
2017-02-03T01:35:46.277Z,21.79
2017-02-03T01:36:06.026Z,21.75
2017-02-03T01:36:25.164Z,21.82
2017-02-03T01:36:44.947Z,21.84
2017-02-03T01:37:04.652Z,21.76
2017-02-03T01:37:23.785Z,21.74
2017-02-03T01:37:43.486Z,21.79
2017-02-03T01:38:03.319Z,21.79
2017-02-03T01:38:23.102Z,21.74
2017-02-03T01:38:42.823Z,21.79
2017-02-03T01:39:02.510Z,21.72
2017-02-03T01:39:21.667Z,21.82
2017-02-03T01:39:41.436Z,21.79
2017-02-03T01:40:01.243Z,21.76
2017-02-03T01:40:21.007Z,21.79
2017-02-03T01:40:40.765Z,21.84
2017-02-03T01:41:00.536Z,21.79
2017-02-03T01:41:20.316Z,21.82
2017-02-03T01:41:40.011Z,21.79
2017-02-03T01:41:59.731Z,21.78
2017-02-03T01:42:19.459Z,21.76
2017-02-03T01:42:39.236Z,21.84
2017-02-03T01:42:58.982Z,21.89
2017-02-03T01:43:18.699Z,21.75
2017-02-03T01:43:38.412Z,21.78
2017-02-03T01:43:58.106Z,21.85
2017-02-03T01:44:17.805Z,21.84
2017-02-03T01:44:37.580Z,21.86
2017-02-03T01:44:57.300Z,21.79
2017-02-03T01:45:17.049Z,21.82
2017-02-03T01:45:36.776Z,21.76
2017-02-03T01:45:56.510Z,21.81
2017-02-03T01:46:16.239Z,21.76
2017-02-03T01:46:35.329Z,21.78
2017-02-03T01:46:55.044Z,21.76
2017-02-03T01:47:14.164Z,21.78
2017-02-03T01:47:33.888Z,21.79
2017-02-03T01:47:53.616Z,21.79
2017-02-03T01:48:13.340Z,21.84
2017-02-03T01:48:33.063Z,21.81
2017-02-03T01:48:52.191Z,21.79
2017-02-03T01:49:11.951Z,21.81
2017-02-03T01:49:31.688Z,21.76
2017-02-03T01:49:51.372Z,21.79
2017-02-03T01:50:10.472Z,21.78
2017-02-03T01:50:30.197Z,21.82
2017-02-03T01:50:49.886Z,21.84
2017-02-03T01:51:09.623Z,21.81
2017-02-03T01:51:29.374Z,21.72
2017-02-03T01:51:49.073Z,21.74
2017-02-03T01:52:08.788Z,21.79
2017-02-03T01:52:28.477Z,21.79
2017-02-03T01:52:48.207Z,21.75
2017-02-03T01:53:07.949Z,21.69
2017-02-03T01:53:27.707Z,21.72
2017-02-03T01:53:46.835Z,21.7
2017-02-03T01:54:06.556Z,21.76
2017-02-03T01:54:26.342Z,21.7
2017-02-03T01:54:44.872Z,21.67
2017-02-03T01:55:04.567Z,21.7
2017-02-03T01:55:24.282Z,21.7
2017-02-03T01:55:44.686Z,21.72
2017-02-03T01:56:04.396Z,21.64
2017-02-03T01:56:24.154Z,21.74
2017-02-03T01:56:43.363Z,21.7
2017-02-03T01:57:02.442Z,21.67
2017-02-03T01:57:22.226Z,21.61
2017-02-03T01:57:41.962Z,21.67
2017-02-03T01:58:01.697Z,21.64
2017-02-03T01:58:20.811Z,21.6
2017-02-03T01:58:40.535Z,21.56
2017-02-03T01:58:59.602Z,21.63
2017-02-03T01:59:19.366Z,21.6
2017-02-03T01:59:39.099Z,21.56
2017-02-03T01:59:58.834Z,21.63
2017-02-03T02:00:17.959Z,21.57
2017-02-03T02:00:37.702Z,21.56
2017-02-03T02:00:57.406Z,21.64
2017-02-03T02:01:17.122Z,21.56
2017-02-03T02:01:36.859Z,21.6
2017-02-03T02:01:56.535Z,21.64
2017-02-03T02:02:16.204Z,21.57
2017-02-03T02:02:35.874Z,21.54
2017-02-03T02:02:55.625Z,21.54
2017-02-03T02:03:15.344Z,21.63
2017-02-03T02:03:34.449Z,21.59
2017-02-03T02:03:53.625Z,21.59
2017-02-03T02:04:13.348Z,21.57
2017-02-03T02:04:33.054Z,21.64
2017-02-03T02:04:52.771Z,21.57
2017-02-03T02:05:12.437Z,21.56
2017-02-03T02:05:32.148Z,21.53
2017-02-03T02:05:51.856Z,21.56
2017-02-03T02:06:11.575Z,21.56
2017-02-03T02:06:31.275Z,21.54
2017-02-03T02:06:51.041Z,21.54
2017-02-03T02:07:10.722Z,21.56
2017-02-03T02:07:30.441Z,21.57
2017-02-03T02:07:50.156Z,21.63
2017-02-03T02:08:09.863Z,21.64
2017-02-03T02:08:29.575Z,21.61
2017-02-03T02:08:49.314Z,21.56
2017-02-03T02:09:09.748Z,21.59
2017-02-03T02:09:29.827Z,21.6
2017-02-03T02:09:49.579Z,21.63
2017-02-03T02:10:09.276Z,21.6
2017-02-03T02:10:28.994Z,21.59
2017-02-03T02:10:48.721Z,21.61
2017-02-03T02:11:08.432Z,21.63
2017-02-03T02:11:27.565Z,21.61
2017-02-03T02:11:47.321Z,21.66
2017-02-03T02:12:06.487Z,21.69
2017-02-03T02:12:26.197Z,21.7
2017-02-03T02:12:45.896Z,21.7
2017-02-03T02:13:05.633Z,21.69
2017-02-03T02:13:25.318Z,21.67
2017-02-03T02:13:45.051Z,21.67
2017-02-03T02:14:04.791Z,21.74
2017-02-03T02:14:23.900Z,21.72
2017-02-03T02:14:43.018Z,21.72
2017-02-03T02:15:02.737Z,21.74
2017-02-03T02:15:21.858Z,21.64
2017-02-03T02:15:41.553Z,21.75
2017-02-03T02:16:01.263Z,21.76
2017-02-03T02:16:20.380Z,21.76
2017-02-03T02:16:40.105Z,21.72
2017-02-03T02:16:59.868Z,21.72
2017-02-03T02:17:19.616Z,21.75
2017-02-03T02:17:39.353Z,21.69
2017-02-03T02:17:59.109Z,21.75
2017-02-03T02:18:18.219Z,21.76
2017-02-03T02:18:37.957Z,21.74
2017-02-03T02:18:57.091Z,21.79
2017-02-03T02:19:16.827Z,21.76
2017-02-03T02:19:36.536Z,21.76
2017-02-03T02:19:56.255Z,21.7
2017-02-03T02:20:15.363Z,21.75
2017-02-03T02:20:35.090Z,21.79
2017-02-03T02:20:54.811Z,21.81
2017-02-03T02:21:14.506Z,21.82
2017-02-03T02:21:34.250Z,21.81
2017-02-03T02:21:53.983Z,21.76
2017-02-03T02:22:13.668Z,21.79
2017-02-03T02:22:33.434Z,21.85
2017-02-03T02:22:53.172Z,21.82
2017-02-03T02:23:12.966Z,21.76
2017-02-03T02:23:32.733Z,21.81
2017-02-03T02:23:52.479Z,21.82
2017-02-03T02:24:12.239Z,21.85
2017-02-03T02:24:31.933Z,21.78
2017-02-03T02:24:51.780Z,21.76
2017-02-03T02:25:11.449Z,21.89
2017-02-03T02:25:30.630Z,21.79
2017-02-03T02:25:50.554Z,21.81
2017-02-03T02:26:10.284Z,21.82
2017-02-03T02:26:30.000Z,21.85
2017-02-03T02:26:49.177Z,21.81
2017-02-03T02:27:08.881Z,21.78
2017-02-03T02:27:28.604Z,21.86
2017-02-03T02:27:48.373Z,21.78
2017-02-03T02:28:08.253Z,21.78
2017-02-03T02:28:27.496Z,21.86
2017-02-03T02:28:47.233Z,21.89
2017-02-03T02:29:06.958Z,21.82
2017-02-03T02:29:27.043Z,21.92
2017-02-03T02:29:46.861Z,21.78
2017-02-03T02:30:06.026Z,21.84
2017-02-03T02:30:25.791Z,21.78
2017-02-03T02:30:44.957Z,21.92
2017-02-03T02:31:04.675Z,21.85
2017-02-03T02:31:23.840Z,21.82
2017-02-03T02:31:43.665Z,21.79
2017-02-03T02:32:03.448Z,21.76
2017-02-03T02:32:23.738Z,21.85
2017-02-03T02:32:57.514Z,21.79
2017-02-03T02:33:17.224Z,21.78
2017-02-03T02:33:37.001Z,21.82
2017-02-03T02:33:57.247Z,21.89
2017-02-03T02:34:16.947Z,21.76
2017-02-03T02:34:36.713Z,21.91
2017-02-03T02:34:56.455Z,21.86
2017-02-03T02:35:16.136Z,21.76
2017-02-03T02:35:35.860Z,21.82
2017-02-03T02:35:55.593Z,21.84
2017-02-03T02:36:14.772Z,21.78
2017-02-03T02:36:34.460Z,21.85
2017-02-03T02:36:53.582Z,21.86
2017-02-03T02:37:12.713Z,21.81
2017-02-03T02:37:32.427Z,21.79
2017-02-03T02:37:52.126Z,21.85
2017-02-03T02:38:11.839Z,21.76
2017-02-03T02:38:31.591Z,21.78
2017-02-03T02:38:51.314Z,21.84
2017-02-03T02:39:11.027Z,21.78
2017-02-03T02:39:30.778Z,21.81
2017-02-03T02:39:50.514Z,21.81
2017-02-03T02:40:10.235Z,21.75
2017-02-03T02:40:29.989Z,21.82
2017-02-03T02:40:49.099Z,21.85
2017-02-03T02:41:08.802Z,21.75
2017-02-03T02:41:28.580Z,21.82
2017-02-03T02:41:48.318Z,21.81
2017-02-03T02:42:07.476Z,21.79
2017-02-03T02:42:27.182Z,21.75
2017-02-03T02:42:46.306Z,21.82
2017-02-03T02:43:06.036Z,21.78
2017-02-03T02:43:25.734Z,21.79
2017-02-03T02:43:45.470Z,21.75
2017-02-03T02:44:05.314Z,21.82
2017-02-03T02:44:25.119Z,21.75
2017-02-03T02:44:45.037Z,21.79
2017-02-03T02:45:04.886Z,21.79
2017-02-03T02:45:24.660Z,21.75
2017-02-03T02:45:44.454Z,21.84
2017-02-03T02:46:18.180Z,21.81
2017-02-03T02:46:37.906Z,21.76
2017-02-03T02:46:57.587Z,21.75
2017-02-03T02:47:17.309Z,21.81
2017-02-03T02:47:36.407Z,21.76
2017-02-03T02:47:56.246Z,21.79
2017-02-03T02:48:15.941Z,21.74
2017-02-03T02:48:35.745Z,21.75
2017-02-03T02:48:55.631Z,21.78
2017-02-03T02:49:15.636Z,21.75
2017-02-03T02:49:35.407Z,21.79
2017-02-03T02:49:55.132Z,21.84
2017-02-03T02:50:14.848Z,21.91
2017-02-03T02:50:34.667Z,21.78
2017-02-03T02:50:54.387Z,21.78
2017-02-03T02:51:13.495Z,21.7
2017-02-03T02:51:33.183Z,21.75
2017-02-03T02:51:52.296Z,21.78
2017-02-03T02:52:12.019Z,21.81
2017-02-03T02:52:31.721Z,21.82
2017-02-03T02:52:51.438Z,21.76
2017-02-03T02:53:10.561Z,21.81
2017-02-03T02:53:29.662Z,21.84
2017-02-03T02:53:48.790Z,21.84
2017-02-03T02:54:08.531Z,21.79
2017-02-03T02:54:28.245Z,21.84
2017-02-03T02:54:47.970Z,21.76
2017-02-03T02:55:07.694Z,21.76
2017-02-03T02:55:27.402Z,21.86
2017-02-03T02:55:46.524Z,21.78
2017-02-03T02:56:06.269Z,21.85
2017-02-03T02:56:25.409Z,21.85
2017-02-03T02:56:44.509Z,21.82
2017-02-03T02:57:04.227Z,21.76
2017-02-03T02:57:24.188Z,21.86
2017-02-03T02:57:44.076Z,21.75
2017-02-03T02:58:03.786Z,21.79
2017-02-03T02:58:23.540Z,21.84
2017-02-03T02:58:43.272Z,21.76
2017-02-03T02:59:02.977Z,21.78
2017-02-03T02:59:22.722Z,21.81
2017-02-03T02:59:42.439Z,21.79
2017-02-03T03:00:02.357Z,21.79
2017-02-03T03:00:20.881Z,21.81
2017-02-03T03:00:40.600Z,21.91
2017-02-03T03:01:00.417Z,21.79
2017-02-03T03:01:20.154Z,21.82
2017-02-03T03:01:39.856Z,21.78
2017-02-03T03:01:59.575Z,21.78
2017-02-03T03:02:19.355Z,21.84
2017-02-03T03:02:39.127Z,21.78
2017-02-03T03:02:58.926Z,21.78
2017-02-03T03:03:18.641Z,21.81
2017-02-03T03:03:38.330Z,21.82
2017-02-03T03:03:58.031Z,21.84
2017-02-03T03:04:17.740Z,21.82
2017-02-03T03:04:37.466Z,21.81
2017-02-03T03:04:57.148Z,21.75
2017-02-03T03:05:17.045Z,21.76
2017-02-03T03:05:36.813Z,21.84
2017-02-03T03:05:56.613Z,21.85
2017-02-03T03:06:16.342Z,21.79
2017-02-03T03:06:36.143Z,21.75
2017-02-03T03:06:55.843Z,21.76
2017-02-03T03:07:15.557Z,21.81
2017-02-03T03:07:35.286Z,21.79
2017-02-03T03:07:54.988Z,21.81
2017-02-03T03:08:14.180Z,21.7
2017-02-03T03:08:33.876Z,21.78
2017-02-03T03:08:53.609Z,21.79
2017-02-03T03:09:13.619Z,21.79
2017-02-03T03:09:33.428Z,21.78
2017-02-03T03:09:53.153Z,21.76
2017-02-03T03:10:11.690Z,21.78
2017-02-03T03:10:31.863Z,21.82
2017-02-03T03:10:50.989Z,21.85
2017-02-03T03:11:10.742Z,21.78
2017-02-03T03:11:30.574Z,21.84
2017-02-03T03:11:49.136Z,21.78
2017-02-03T03:12:08.918Z,21.86
2017-02-03T03:12:28.742Z,21.79
2017-02-03T03:12:48.504Z,21.79
2017-02-03T03:13:08.208Z,21.91
2017-02-03T03:13:27.900Z,21.92
2017-02-03T03:13:47.634Z,21.91
2017-02-03T03:14:07.359Z,21.84
2017-02-03T03:14:27.088Z,21.86
2017-02-03T03:14:46.180Z,21.97
2017-02-03T03:15:05.930Z,21.97
2017-02-03T03:15:25.659Z,21.95
2017-02-03T03:15:45.373Z,21.97
2017-02-03T03:16:05.101Z,21.97
2017-02-03T03:16:24.238Z,21.97
2017-02-03T03:16:43.971Z,21.95
2017-02-03T03:17:03.705Z,21.94
2017-02-03T03:17:23.440Z,22.01
2017-02-03T03:17:43.320Z,21.92
2017-02-03T03:18:03.137Z,21.98
2017-02-03T03:18:23.104Z,22
2017-02-03T03:18:42.897Z,21.98
2017-02-03T03:19:02.695Z,21.98
2017-02-03T03:19:22.429Z,22.02
2017-02-03T03:19:42.111Z,22.04
2017-02-03T03:20:01.211Z,22.05
2017-02-03T03:20:20.938Z,22.01
2017-02-03T03:20:40.682Z,22.02
2017-02-03T03:21:00.426Z,22.02
2017-02-03T03:21:20.149Z,22.1
2017-02-03T03:21:39.856Z,22.02
2017-02-03T03:21:59.026Z,22
2017-02-03T03:22:18.753Z,22.07
2017-02-03T03:22:38.462Z,22.07
2017-02-03T03:22:58.158Z,22.05
2017-02-03T03:23:17.859Z,22.05
2017-02-03T03:23:36.992Z,22.08
2017-02-03T03:23:56.751Z,22.01
2017-02-03T03:24:16.510Z,22.05
2017-02-03T03:24:35.674Z,22.02
2017-02-03T03:24:55.398Z,22.05
2017-02-03T03:25:15.111Z,22.05
2017-02-03T03:25:34.839Z,22.16
2017-02-03T03:25:54.558Z,22.12
2017-02-03T03:26:14.298Z,22.1
2017-02-03T03:26:33.990Z,22.12
2017-02-03T03:26:53.773Z,22.15
2017-02-03T03:27:13.591Z,22.15
2017-02-03T03:27:32.705Z,22.16
2017-02-03T03:27:52.439Z,22.16
2017-02-03T03:28:11.531Z,22.16
2017-02-03T03:28:31.246Z,22.12
2017-02-03T03:28:50.968Z,22.12
2017-02-03T03:29:10.068Z,22.15
2017-02-03T03:29:29.860Z,22.2
2017-02-03T03:29:49.573Z,22.17
2017-02-03T03:30:08.906Z,22.12
2017-02-03T03:30:28.025Z,22.2
2017-02-03T03:30:47.159Z,22.17
2017-02-03T03:31:06.874Z,22.19
2017-02-03T03:31:26.562Z,22.19
2017-02-03T03:31:46.256Z,22.17
2017-02-03T03:32:05.945Z,22.16
2017-02-03T03:32:25.052Z,22.12
2017-02-03T03:32:44.753Z,22.08
2017-02-03T03:33:04.520Z,22.16
2017-02-03T03:33:24.833Z,22.19
2017-02-03T03:33:44.799Z,22.17
2017-02-03T03:34:04.545Z,22.12
2017-02-03T03:34:23.702Z,22.16
2017-02-03T03:34:43.402Z,22.15
2017-02-03T03:35:03.091Z,22.12
2017-02-03T03:35:22.209Z,22.12
2017-02-03T03:35:41.297Z,22.12
2017-02-03T03:36:01.054Z,22.1
2017-02-03T03:36:20.166Z,22.02
2017-02-03T03:36:39.888Z,22.04
2017-02-03T03:36:59.598Z,22.07
2017-02-03T03:37:19.340Z,22.02
2017-02-03T03:37:38.479Z,21.98
2017-02-03T03:37:58.222Z,21.95
2017-02-03T03:38:17.930Z,21.95
2017-02-03T03:38:37.640Z,21.92
2017-02-03T03:38:57.349Z,21.94
2017-02-03T03:39:17.074Z,21.95
2017-02-03T03:39:36.786Z,21.89
2017-02-03T03:39:56.511Z,22.01
2017-02-03T03:40:15.627Z,21.89
2017-02-03T03:40:34.743Z,21.85
2017-02-03T03:40:54.497Z,21.91
2017-02-03T03:41:14.219Z,21.85
2017-02-03T03:41:33.936Z,21.94
2017-02-03T03:41:53.658Z,21.86
2017-02-03T03:42:13.337Z,21.89
2017-02-03T03:42:33.050Z,21.98
2017-02-03T03:42:52.756Z,21.97
2017-02-03T03:43:12.466Z,21.98
2017-02-03T03:43:32.185Z,21.95
2017-02-03T03:43:51.939Z,21.95
2017-02-03T03:44:11.072Z,21.92
2017-02-03T03:44:30.776Z,21.89
2017-02-03T03:44:50.507Z,21.86
2017-02-03T03:45:10.186Z,21.84
2017-02-03T03:45:29.921Z,21.94
2017-02-03T03:45:49.657Z,21.92
2017-02-03T03:46:09.371Z,21.86
2017-02-03T03:46:29.085Z,21.84
2017-02-03T03:46:48.798Z,21.86
2017-02-03T03:47:08.499Z,21.91
2017-02-03T03:47:28.227Z,21.86
2017-02-03T03:47:47.962Z,21.85
2017-02-03T03:48:07.659Z,21.86
2017-02-03T03:48:26.783Z,21.84
2017-02-03T03:48:46.501Z,21.85
2017-02-03T03:49:06.211Z,21.85
2017-02-03T03:49:25.942Z,21.85
2017-02-03T03:49:45.653Z,21.97
2017-02-03T03:50:19.286Z,21.89
2017-02-03T03:50:38.996Z,21.84
2017-02-03T03:50:58.715Z,21.85
2017-02-03T03:51:18.415Z,21.89
2017-02-03T03:51:38.118Z,21.79
2017-02-03T03:51:57.835Z,21.82
2017-02-03T03:52:17.553Z,21.91
2017-02-03T03:52:37.252Z,21.86
2017-02-03T03:52:56.973Z,21.86
2017-02-03T03:53:16.695Z,21.86
2017-02-03T03:53:35.804Z,21.91
2017-02-03T03:53:55.505Z,21.85
2017-02-03T03:54:15.237Z,21.85
2017-02-03T03:54:34.373Z,21.86
2017-02-03T03:54:54.093Z,21.82
2017-02-03T03:55:13.806Z,21.86
2017-02-03T03:55:33.544Z,21.89
2017-02-03T03:55:53.245Z,21.91
2017-02-03T03:56:12.981Z,21.89
2017-02-03T03:56:32.734Z,21.84
2017-02-03T03:56:52.452Z,21.84
2017-02-03T03:57:12.160Z,21.85
2017-02-03T03:57:31.269Z,21.89
2017-02-03T03:57:50.944Z,21.86
2017-02-03T03:58:10.041Z,21.91
2017-02-03T03:58:29.699Z,21.92
2017-02-03T03:58:49.369Z,21.84
2017-02-03T03:59:09.071Z,21.97
2017-02-03T03:59:28.769Z,21.89
2017-02-03T03:59:48.498Z,21.86
2017-02-03T04:00:08.213Z,21.85
2017-02-03T04:00:27.366Z,21.94
2017-02-03T04:00:47.097Z,21.97
2017-02-03T04:01:06.829Z,21.95
2017-02-03T04:01:26.541Z,22
2017-02-03T04:01:45.684Z,21.95
2017-02-03T04:02:05.384Z,21.95
2017-02-03T04:02:24.511Z,21.95
2017-02-03T04:02:44.236Z,21.91
2017-02-03T04:03:03.925Z,21.94
2017-02-03T04:03:23.652Z,22.01
2017-02-03T04:03:42.778Z,21.95
2017-02-03T04:04:02.472Z,22.02
2017-02-03T04:04:21.594Z,21.98
2017-02-03T04:04:40.754Z,21.98
2017-02-03T04:05:00.501Z,22.07
2017-02-03T04:05:20.200Z,22
2017-02-03T04:05:39.295Z,22.05
2017-02-03T04:05:58.989Z,22.1
2017-02-03T04:06:18.692Z,22.08
2017-02-03T04:06:38.420Z,22.05
2017-02-03T04:06:58.116Z,22.04
2017-02-03T04:07:17.825Z,22.05
2017-02-03T04:07:37.508Z,22.1
2017-02-03T04:07:57.245Z,22.02
2017-02-03T04:08:16.957Z,22.05
2017-02-03T04:08:36.069Z,22.1
2017-02-03T04:08:55.756Z,22.05
2017-02-03T04:09:15.494Z,22.05
2017-02-03T04:09:34.624Z,22.04
2017-02-03T04:09:54.361Z,22.04
2017-02-03T04:10:13.473Z,22.05
2017-02-03T04:10:33.206Z,22.08
2017-02-03T04:10:52.312Z,22.07
2017-02-03T04:11:12.049Z,22.07
2017-02-03T04:11:31.796Z,22.08
2017-02-03T04:11:51.559Z,22.07
2017-02-03T04:12:11.318Z,22.07
2017-02-03T04:12:31.047Z,22.08
2017-02-03T04:12:50.730Z,22.07
2017-02-03T04:13:10.441Z,22.02
2017-02-03T04:13:30.174Z,22.04
2017-02-03T04:13:49.894Z,22.04